Time;durP1;ratioP1;P1;durP2;ratioP2;P2;SDS_P1;SDS_P2;PMS_P1;PMS_P2;Temp;Humidity;BMP_temperature;BMP_pressure;BME280_temperature;BME280_humidity;BME280_pressure;Samples;Min_cycle;Max_cycle;Signal;HPM_P1;HPM_P2
2023/08/03 00:00:28;;;;;;;1999.90;999.90;;;17.50;99.90;;;;;;5074410;28;20035;-73
2023/08/03 00:02:57;;;;;;;1999.90;999.90;;;17.60;99.90;;;;;;5075621;28;20043;-72
2023/08/03 00:05:23;;;;;;;1999.90;999.90;;;17.60;99.90;;;;;;5073674;28;20033;-72
2023/08/03 00:07:50;;;;;;;1999.90;999.90;;;17.80;99.90;;;;;;5075701;28;20048;-72
2023/08/03 00:10:20;;;;;;;1999.90;999.90;;;17.90;99.90;;;;;;5075952;28;20032;-72
2023/08/03 00:12:46;;;;;;;1999.90;999.90;;;17.90;99.90;;;;;;5074278;28;20033;-73
2023/08/03 00:15:13;;;;;;;1999.90;999.90;;;18.00;99.90;;;;;;5075435;28;20033;-72
2023/08/03 00:17:39;;;;;;;1999.90;999.90;;;18.10;99.90;;;;;;5075449;28;20041;-72
2023/08/03 00:20:06;;;;;;;1999.90;999.90;;;18.10;99.90;;;;;;5075980;28;20128;-72
2023/08/03 00:22:32;;;;;;;1999.90;999.90;;;18.20;99.90;;;;;;5075226;28;20036;-72
2023/08/03 00:24:58;;;;;;;1999.90;999.90;;;18.20;99.90;;;;;;5074559;28;20037;-73
2023/08/03 00:27:24;;;;;;;1999.90;999.90;;;18.20;99.90;;;;;;5075715;28;20033;-73
2023/08/03 00:29:49;;;;;;;1999.90;999.90;;;18.30;99.90;;;;;;5074388;28;20033;-72
2023/08/03 00:32:15;;;;;;;1999.90;999.90;;;18.40;99.90;;;;;;5075629;28;20033;-72
2023/08/03 00:34:40;;;;;;;1999.90;999.90;;;18.40;99.90;;;;;;5075026;28;20041;-72
2023/08/03 00:37:06;;;;;;;1999.90;999.90;;;18.60;99.90;;;;;;5075433;28;20037;-72
2023/08/03 00:39:32;;;;;;;1999.90;999.90;;;18.70;99.90;;;;;;5075534;28;20028;-72
2023/08/03 00:41:57;;;;;;;1999.90;999.90;;;18.70;99.90;;;;;;5075432;28;20041;-72
2023/08/03 00:44:23;;;;;;;1999.90;999.90;;;18.80;99.90;;;;;;5074109;28;20583;-72
2023/08/03 00:46:49;;;;;;;1999.90;999.90;;;18.80;99.90;;;;;;5075291;28;20037;-72
2023/08/03 00:49:14;;;;;;;1999.90;999.90;;;18.60;99.90;;;;;;5075244;28;20033;-73
2023/08/03 00:51:40;;;;;;;1999.90;999.90;;;18.60;99.90;;;;;;5075019;28;20033;-73
2023/08/03 00:54:07;;;;;;;1999.90;999.90;;;18.40;99.90;;;;;;5074768;28;20033;-73
2023/08/03 00:56:35;;;;;;;1999.90;999.90;;;18.30;99.90;;;;;;5074944;28;20450;-73
2023/08/03 00:59:03;;;;;;;1999.90;999.90;;;18.10;99.90;;;;;;5075169;28;20558;-73
2023/08/03 01:01:29;;;;;;;1999.90;999.90;;;18.10;99.90;;;;;;5073461;28;20059;-73
2023/08/03 01:03:55;;;;;;;1999.90;999.90;;;18.00;99.90;;;;;;5074636;28;20045;-73
2023/08/03 01:06:22;;;;;;;1999.90;999.90;;;17.90;99.90;;;;;;5073406;28;20098;-73
2023/08/03 01:08:47;;;;;;;1999.90;999.90;;;18.00;99.90;;;;;;5074990;28;20496;-73
2023/08/03 01:11:13;;;;;;;1999.90;999.90;;;18.10;99.90;;;;;;5074909;28;20037;-73
2023/08/03 01:13:39;;;;;;;1999.90;999.90;;;18.10;99.90;;;;;;5074595;28;20489;-73
2023/08/03 01:16:12;;;;;;;1999.90;999.90;;;18.10;99.90;;;;;;5073286;28;20040;-73
2023/08/03 01:18:41;;;;;;;1999.90;999.90;;;18.00;99.90;;;;;;5073230;28;20037;-73
2023/08/03 01:21:08;;;;;;;1999.90;999.90;;;17.90;99.90;;;;;;5073272;28;20560;-73
2023/08/03 01:23:34;;;;;;;1999.90;999.90;;;17.90;99.90;;;;;;5074331;28;20041;-73
2023/08/03 01:25:59;;;;;;;1999.90;999.90;;;18.00;99.90;;;;;;5074320;28;20411;-73
2023/08/03 01:28:25;;;;;;;1999.90;999.90;;;18.10;99.90;;;;;;5074397;28;20128;-72
2023/08/03 01:30:50;;;;;;;1999.90;999.90;;;18.00;99.90;;;;;;5073130;28;20076;-73
2023/08/03 01:33:16;;;;;;;1999.90;999.90;;;18.00;99.90;;;;;;5074441;28;20037;-73
2023/08/03 01:35:42;;;;;;;1999.90;999.90;;;17.90;99.90;;;;;;5072615;28;20037;-73
2023/08/03 01:38:07;;;;;;;1999.90;999.90;;;17.90;99.90;;;;;;5073668;28;20515;-73
2023/08/03 01:40:33;;;;;;;1999.90;999.90;;;17.80;99.90;;;;;;5074635;28;20036;-73
2023/08/03 01:45:28;;;;;;;1999.90;999.90;;;18.00;99.90;;;;;;5049261;28;20483;-72
2023/08/03 01:47:53;;;;;;;1999.90;999.90;;;18.30;99.90;;;;;;5054541;28;20069;-72
2023/08/03 01:50:19;;;;;;;1999.90;999.90;;;18.30;99.90;;;;;;5054472;28;20084;-72
2023/08/03 01:52:44;;;;;;;1999.90;999.90;;;18.20;99.90;;;;;;5052898;28;20499;-72
2023/08/03 01:55:10;;;;;;;1999.90;999.90;;;18.40;99.90;;;;;;5035834;28;20038;-72
2023/08/03 01:57:35;;;;;;;1999.90;999.90;;;18.30;99.90;;;;;;5034236;28;20041;-71
2023/08/03 02:00:01;;;;;;;1999.90;999.90;;;18.30;99.90;;;;;;5032708;28;20029;-72
2023/08/03 02:02:26;;;;;;;1999.90;999.90;;;18.30;99.90;;;;;;5034147;28;20042;-72
2023/08/03 02:04:52;;;;;;;1999.90;999.90;;;18.30;99.90;;;;;;5033878;28;20542;-72
2023/08/03 02:07:43;;;;;;;1999.90;999.90;;;18.30;99.90;;;;;;5034393;28;20452;-72
2023/08/03 02:10:10;;;;;;;1999.90;999.90;;;18.20;99.90;;;;;;5034242;28;20086;-72
2023/08/03 02:12:36;;;;;;;1999.90;999.90;;;18.00;99.90;;;;;;5034201;28;20038;-72
2023/08/03 02:15:02;;;;;;;1999.90;999.90;;;17.90;99.90;;;;;;5032085;28;20038;-72
2023/08/03 02:17:28;;;;;;;1999.90;999.90;;;17.80;99.90;;;;;;5032629;28;20489;-72
2023/08/03 02:19:55;;;;;;;1999.90;999.90;;;17.80;99.90;;;;;;5034247;28;20037;-72
2023/08/03 02:22:20;;;;;;;1999.90;999.90;;;17.80;99.90;;;;;;5033831;28;20052;-73
2023/08/03 02:24:45;;;;;;;1999.90;999.90;;;17.90;99.90;;;;;;5031799;28;20036;-72
2023/08/03 02:27:11;;;;;;;1999.90;999.90;;;17.90;99.90;;;;;;5035100;28;20092;-70
2023/08/03 02:29:37;;;;;;;1999.90;999.90;;;17.80;99.90;;;;;;5035947;28;20403;-72
2023/08/03 02:32:02;;;;;;;1999.90;999.90;;;17.80;99.90;;;;;;5037509;28;20038;-72
2023/08/03 02:34:28;;;;;;;1999.90;999.90;;;17.70;99.90;;;;;;5036856;28;20489;-72
2023/08/03 02:36:53;;;;;;;1999.90;999.90;;;17.70;99.90;;;;;;5037233;28;20083;-72
2023/08/03 02:39:19;;;;;;;1999.90;999.90;;;17.70;99.90;;;;;;5035855;28;20034;-72
2023/08/03 02:41:44;;;;;;;1999.90;999.90;;;17.90;99.90;;;;;;5037299;28;20053;-72
2023/08/03 02:44:10;;;;;;;1999.90;999.90;;;17.80;99.90;;;;;;5036948;28;20132;-72
2023/08/03 02:46:35;;;;;;;1999.90;999.90;;;18.00;99.90;;;;;;5037133;28;20036;-72
2023/08/03 02:49:01;;;;;;;1999.90;999.90;;;18.10;99.90;;;;;;5037402;28;20038;-72
2023/08/03 02:51:26;;;;;;;1999.90;999.90;;;18.10;99.90;;;;;;5037335;28;20402;-73
2023/08/03 02:53:52;;;;;;;1999.90;999.90;;;18.20;99.90;;;;;;5037645;28;20042;-73
2023/08/03 02:56:17;;;;;;;1999.90;999.90;;;18.20;99.90;;;;;;5037021;28;20038;-72
2023/08/03 02:58:43;;;;;;;1999.90;999.90;;;18.40;99.90;;;;;;5035783;28;20034;-73
2023/08/03 03:01:08;;;;;;;1999.90;999.90;;;18.50;99.90;;;;;;5037670;28;20440;-72
2023/08/03 03:03:34;;;;;;;1999.90;999.90;;;18.60;99.90;;;;;;5035195;28;20517;-72
2023/08/03 03:05:59;;;;;;;1999.90;999.90;;;18.60;99.90;;;;;;5036719;28;20076;-72
2023/08/03 03:08:25;;;;;;;1999.90;999.90;;;18.60;99.90;;;;;;5035743;28;20117;-73
2023/08/03 03:10:50;;;;;;;1999.90;999.90;;;18.60;99.90;;;;;;5035355;28;20052;-72
2023/08/03 03:13:16;;;;;;;1999.90;999.90;;;18.50;99.90;;;;;;5035027;28;20137;-73
2023/08/03 03:15:41;;;;;;;1999.90;999.90;;;18.50;99.90;;;;;;5036647;28;20033;-72
2023/08/03 03:18:07;;;;;;;1999.90;999.90;;;18.30;99.90;;;;;;5036697;28;20038;-72
2023/08/03 03:20:32;;;;;;;1999.90;999.90;;;18.20;99.90;;;;;;5036596;28;20046;-72
2023/08/03 03:22:58;;;;;;;1999.90;999.90;;;18.10;99.90;;;;;;5035075;28;20042;-72
2023/08/03 03:25:23;;;;;;;1999.90;999.90;;;18.10;99.90;;;;;;5034918;28;20022;-71
2023/08/03 03:27:49;;;;;;;1999.90;999.90;;;18.00;99.90;;;;;;5035420;28;20497;-73
2023/08/03 03:30:16;;;;;;;1999.90;999.90;;;17.90;99.90;;;;;;5036655;28;20089;-73
2023/08/03 03:32:42;;;;;;;1999.90;999.90;;;17.80;99.90;;;;;;5036615;28;20500;-72
2023/08/03 03:35:08;;;;;;;1999.90;999.90;;;17.80;99.90;;;;;;5036879;28;20029;-71
2023/08/03 03:37:33;;;;;;;1999.90;999.90;;;17.70;99.90;;;;;;5037047;28;20037;-71
2023/08/03 03:39:59;;;;;;;1999.90;999.90;;;17.60;99.90;;;;;;5036495;28;20034;-72
2023/08/03 03:42:24;;;;;;;1999.90;999.90;;;17.60;99.90;;;;;;5037388;28;20042;-71
2023/08/03 03:44:50;;;;;;;1999.90;999.90;;;17.50;99.90;;;;;;5037246;28;20030;-72
2023/08/03 03:47:15;;;;;;;1999.90;999.90;;;17.50;99.90;;;;;;5039097;28;20034;-72
2023/08/03 03:49:41;;;;;;;1999.90;999.90;;;17.50;99.90;;;;;;5038620;28;20050;-71
2023/08/03 03:52:07;;;;;;;1999.90;999.90;;;17.50;99.90;;;;;;5037296;28;20069;-72
2023/08/03 03:54:32;;;;;;;1999.90;999.90;;;17.50;99.90;;;;;;5035626;28;20112;-72
2023/08/03 03:56:58;;;;;;;1999.90;999.90;;;17.50;99.90;;;;;;5035432;28;20430;-72
2023/08/03 03:59:24;;;;;;;1999.90;999.90;;;17.50;99.90;;;;;;5035573;28;20100;-72
2023/08/03 04:01:49;;;;;;;1999.90;999.90;;;17.40;99.90;;;;;;5037349;28;20165;-72
2023/08/03 04:04:15;;;;;;;1999.90;999.90;;;17.40;99.90;;;;;;5037952;28;20030;-72
2023/08/03 04:06:40;;;;;;;1999.90;999.90;;;17.30;99.90;;;;;;5036257;28;20157;-72
2023/08/03 04:09:06;;;;;;;1999.90;999.90;;;17.20;99.90;;;;;;5037500;28;20033;-70
2023/08/03 04:11:31;;;;;;;1999.90;999.90;;;17.20;99.90;;;;;;5037011;28;20418;-71
2023/08/03 04:13:57;;;;;;;1999.90;999.90;;;17.10;99.90;;;;;;5036043;28;20040;-69
2023/08/03 04:16:22;;;;;;;1999.90;999.90;;;17.20;99.90;;;;;;5037620;28;20109;-69
2023/08/03 04:18:48;;;;;;;1999.90;999.90;;;17.20;99.90;;;;;;5037615;28;20088;-72
2023/08/03 04:21:13;;;;;;;1999.90;999.90;;;17.30;99.90;;;;;;5037178;28;20038;-72
2023/08/03 04:23:39;;;;;;;1999.90;999.90;;;17.40;99.90;;;;;;5035337;28;20076;-70
2023/08/03 04:26:07;;;;;;;1999.90;999.90;;;17.50;99.90;;;;;;5035839;28;20049;-72
2023/08/03 04:28:32;;;;;;;1999.90;999.90;;;17.50;99.90;;;;;;5036428;28;20085;-72
2023/08/03 04:30:58;;;;;;;1999.90;999.90;;;17.50;99.90;;;;;;5036707;28;20413;-72
2023/08/03 04:33:23;;;;;;;1999.90;999.90;;;17.50;99.90;;;;;;5036690;28;20041;-70
2023/08/03 04:35:49;;;;;;;1999.90;999.90;;;17.60;99.90;;;;;;5036644;28;20030;-72
2023/08/03 04:38:14;;;;;;;1999.90;999.90;;;17.60;99.90;;;;;;5037680;28;20045;-72
2023/08/03 04:40:40;;;;;;;1999.90;999.90;;;17.70;99.90;;;;;;5036325;28;20080;-71
2023/08/03 04:43:06;;;;;;;1999.90;999.90;;;17.70;99.90;;;;;;5036239;28;20042;-72
2023/08/03 04:45:31;;;;;;;1999.90;999.90;;;17.70;99.90;;;;;;5035294;28;20061;-72
2023/08/03 04:47:57;;;;;;;1999.90;999.90;;;17.70;99.90;;;;;;5036826;28;20072;-72
2023/08/03 04:50:22;;;;;;;1999.90;999.90;;;17.70;99.90;;;;;;5035819;28;20060;-72
2023/08/03 04:52:48;;;;;;;1999.90;999.90;;;17.80;99.90;;;;;;5036092;28;20029;-72
2023/08/03 04:55:13;;;;;;;1999.90;999.90;;;17.80;99.90;;;;;;5033478;28;20108;-72
2023/08/03 04:57:39;;;;;;;1999.90;999.90;;;17.90;99.90;;;;;;5036340;28;20037;-72
2023/08/03 05:00:05;;;;;;;1999.90;999.90;;;18.00;99.90;;;;;;5034941;28;20042;-72
2023/08/03 05:02:31;;;;;;;1999.90;999.90;;;18.00;99.90;;;;;;5033700;28;20070;-72
2023/08/03 05:04:56;;;;;;;1999.90;999.90;;;18.10;99.90;;;;;;5036488;28;20061;-72
2023/08/03 05:07:22;;;;;;;1999.90;999.90;;;18.10;99.90;;;;;;5036819;28;20520;-71
2023/08/03 05:09:47;;;;;;;1999.90;999.90;;;18.10;99.90;;;;;;5034164;28;20026;-72
2023/08/03 05:12:13;;;;;;;1999.90;999.90;;;18.20;99.90;;;;;;5035986;28;20076;-72
2023/08/03 05:14:38;;;;;;;1999.90;999.90;;;18.10;99.90;;;;;;5033594;28;20038;-72
2023/08/03 05:17:04;;;;;;;1999.90;999.90;;;18.20;99.90;;;;;;5035315;28;20040;-72
2023/08/03 05:19:30;;;;;;;1999.90;999.90;;;18.10;99.90;;;;;;5035266;28;20117;-72
2023/08/03 05:21:57;;;;;;;1999.90;999.90;;;18.20;99.90;;;;;;5035192;28;20037;-72
2023/08/03 05:24:23;;;;;;;1999.90;999.90;;;18.10;99.90;;;;;;5032650;28;20033;-73
2023/08/03 05:26:48;;;;;;;1999.90;999.90;;;17.80;99.90;;;;;;5034415;28;20036;-72
2023/08/03 05:29:14;;;;;;;1999.90;999.90;;;17.60;99.90;;;;;;5035722;28;20042;-70
2023/08/03 05:31:39;;;;;;;1999.90;999.90;;;17.60;99.90;;;;;;5035317;28;20030;-72
2023/08/03 05:34:05;;;;;;;1999.90;999.90;;;17.50;99.90;;;;;;5034913;28;20034;-73
2023/08/03 05:36:30;;;;;;;1999.90;999.90;;;17.60;99.90;;;;;;5034557;28;20034;-72
2023/08/03 05:38:56;;;;;;;1999.90;999.90;;;17.70;99.90;;;;;;5035527;28;20042;-72
2023/08/03 05:41:25;;;;;;;1999.90;999.90;;;17.90;99.90;;;;;;5034942;28;20038;-73
2023/08/03 05:43:51;;;;;;;1999.90;999.90;;;18.10;99.90;;;;;;5033754;28;20107;-73
2023/08/03 05:46:17;;;;;;;1999.90;999.90;;;18.40;99.90;;;;;;5032845;28;20083;-73
2023/08/03 05:48:42;;;;;;;1999.90;999.90;;;18.40;99.90;;;;;;5032835;28;20215;-73
2023/08/03 05:51:11;;;;;;;1999.90;999.90;;;18.40;99.90;;;;;;5032670;28;20160;-74
2023/08/03 05:53:36;;;;;;;1999.90;999.90;;;18.50;99.90;;;;;;5033991;28;20030;-72
2023/08/03 05:56:10;;;;;;;1999.90;999.90;;;18.50;99.90;;;;;;5033892;28;20036;-71
2023/08/03 05:58:36;;;;;;;1999.90;999.90;;;18.50;99.90;;;;;;5031245;28;20041;-73
2023/08/03 06:01:02;;;;;;;1999.90;999.90;;;18.50;99.90;;;;;;5033066;28;20096;-73
2023/08/03 06:03:31;;;;;;;1999.90;999.90;;;18.90;99.90;;;;;;5032726;28;20116;-73
2023/08/03 06:05:59;;;;;;;1999.90;999.90;;;19.00;99.90;;;;;;5037332;28;20037;-73
2023/08/03 06:08:26;;;;;;;1999.90;999.90;;;19.10;99.90;;;;;;5037579;28;20045;-72
2023/08/03 06:10:56;;;;;;;1999.90;999.90;;;19.00;99.90;;;;;;5037797;28;20033;-73
2023/08/03 06:13:34;;;;;;;1999.90;999.90;;;19.10;99.90;;;;;;5037650;28;20026;-72
2023/08/03 06:16:04;;;;;;;1999.90;999.90;;;19.20;99.90;;;;;;5037535;28;20117;-76
2023/08/03 06:18:31;;;;;;;1999.90;999.90;;;19.40;99.90;;;;;;5038959;28;20087;-73
2023/08/03 06:20:56;;;;;;;1999.90;999.90;;;19.50;99.90;;;;;;5037744;28;20100;-72
2023/08/03 06:23:28;;;;;;;1999.90;999.90;;;19.50;99.90;;;;;;5036848;28;20464;-72
2023/08/03 06:25:55;;;;;;;1999.90;999.90;;;19.50;99.90;;;;;;5037274;28;20074;-72
2023/08/03 06:28:22;;;;;;;1999.90;999.90;;;19.40;99.90;;;;;;5037367;28;20505;-72
2023/08/03 06:30:50;;;;;;;1999.90;999.90;;;19.40;99.90;;;;;;5037387;28;20041;-71
2023/08/03 06:33:23;;;;;;;1999.90;999.90;;;19.30;99.90;;;;;;5036970;28;20084;-72
2023/08/03 06:35:52;;;;;;;1999.90;999.90;;;19.10;99.90;;;;;;5037215;28;20030;-72
2023/08/03 06:38:21;;;;;;;1999.90;999.90;;;19.10;99.90;;;;;;5037349;28;20041;-72
2023/08/03 06:40:47;;;;;;;1999.90;999.90;;;19.20;99.90;;;;;;5037207;28;20052;-73
2023/08/03 06:43:13;;;;;;;1999.90;999.90;;;19.50;99.90;;;;;;5036026;28;20625;-72
2023/08/03 06:45:43;;;;;;;1999.90;999.90;;;19.60;99.90;;;;;;5036588;28;20120;-71
2023/08/03 06:48:09;;;;;;;1999.90;999.90;;;19.80;99.90;;;;;;5035605;28;20044;-71
2023/08/03 06:50:35;;;;;;;1999.90;999.90;;;19.70;99.90;;;;;;5037429;28;20037;-71
2023/08/03 06:53:02;;;;;;;1999.90;999.90;;;19.80;99.90;;;;;;5036885;28;20130;-71
2023/08/03 06:55:28;;;;;;;1999.90;999.90;;;19.80;99.90;;;;;;5036775;28;20029;-71
2023/08/03 06:57:54;;;;;;;1999.90;999.90;;;19.80;99.90;;;;;;5036984;28;20113;-71
2023/08/03 07:00:19;;;;;;;1999.90;999.90;;;19.60;99.90;;;;;;5036588;28;20117;-70
2023/08/03 07:02:47;;;;;;;1999.90;999.90;;;19.40;99.90;;;;;;5035113;28;20093;-71
2023/08/03 07:05:13;;;;;;;1999.90;999.90;;;19.20;99.90;;;;;;5036147;28;20410;-72
2023/08/03 07:07:39;;;;;;;1999.90;999.90;;;19.20;99.90;;;;;;5036729;28;20069;-72
2023/08/03 07:10:06;;;;;;;1999.90;999.90;;;19.30;99.90;;;;;;5036744;28;20108;-72
2023/08/03 07:12:33;;;;;;;1999.90;999.90;;;19.40;99.90;;;;;;5035135;28;20037;-72
2023/08/03 07:14:58;;;;;;;1999.90;999.90;;;19.50;99.90;;;;;;5035732;28;20477;-71
2023/08/03 07:17:24;;;;;;;1999.90;999.90;;;19.50;99.90;;;;;;5036583;28;20045;-72
2023/08/03 07:19:54;;;;;;;1999.90;999.90;;;19.70;99.90;;;;;;5036516;28;20030;-70
2023/08/03 07:22:23;;;;;;;1999.90;999.90;;;20.00;99.90;;;;;;5036232;28;20033;-71
2023/08/03 07:24:49;;;;;;;1999.90;999.90;;;20.10;99.90;;;;;;5036377;28;20516;-74
2023/08/03 07:27:18;;;;;;;1999.90;999.90;;;20.50;99.90;;;;;;5036532;28;20505;-73
2023/08/03 07:29:44;;;;;;;1999.90;999.90;;;20.60;99.90;;;;;;5035191;28;20034;-72
2023/08/03 07:32:11;;;;;;;1999.90;999.90;;;20.70;99.90;;;;;;5036606;28;20478;-72
2023/08/03 07:34:36;;;;;;;1999.90;999.90;;;20.70;99.90;;;;;;5036130;28;20089;-71
2023/08/03 07:37:02;;;;;;;1999.90;999.90;;;20.90;99.90;;;;;;5036248;28;20096;-71
2023/08/03 07:39:28;;;;;;;1999.90;999.90;;;20.90;99.90;;;;;;5036403;28;20026;-72
2023/08/03 07:41:53;;;;;;;1999.90;999.90;;;20.90;99.90;;;;;;5036113;28;20113;-72
2023/08/03 07:44:19;;;;;;;1999.90;999.90;;;20.80;99.90;;;;;;5035405;28;20046;-70
2023/08/03 07:46:46;;;;;;;1999.90;999.90;;;20.70;99.90;;;;;;5034761;28;20054;-75
2023/08/03 07:49:12;;;;;;;1999.90;999.90;;;21.20;99.90;;;;;;5036117;28;20038;-71
2023/08/03 07:51:38;;;;;;;1999.90;999.90;;;21.40;99.90;;;;;;5036765;28;20472;-71
2023/08/03 07:54:03;;;;;;;1999.90;999.90;;;21.60;99.90;;;;;;5035721;28;20038;-68
2023/08/03 07:56:29;;;;;;;1999.90;999.90;;;21.70;99.90;;;;;;5036066;28;20045;-69
2023/08/03 07:58:55;;;;;;;1999.90;999.90;;;22.30;99.90;;;;;;5035996;28;20109;-69
2023/08/03 08:01:20;;;;;;;1999.90;999.90;;;22.30;99.90;;;;;;5036219;28;20045;-69
2023/08/03 08:03:47;;;;;;;1999.90;999.90;;;22.40;99.90;;;;;;5035753;28;20557;-69
2023/08/03 08:06:17;;;;;;;1999.90;999.90;;;22.50;99.90;;;;;;5035799;28;20069;-69
2023/08/03 08:08:44;;;;;;;1999.90;999.90;;;22.40;99.90;;;;;;5035899;28;20525;-71
2023/08/03 08:11:11;;;;;;;1999.90;999.90;;;21.80;99.90;;;;;;5035796;28;20040;-71
2023/08/03 08:13:37;;;;;;;1999.90;999.90;;;21.40;99.70;;;;;;5034473;28;20038;-70
2023/08/03 08:16:05;;;;;;;1999.90;999.90;;;21.20;99.90;;;;;;5035532;28;20038;-71
2023/08/03 08:18:32;;;;;;;1999.90;999.90;;;20.90;99.90;;;;;;5032391;28;20121;-71
2023/08/03 08:21:03;;;;;;;1999.90;999.90;;;20.90;99.90;;;;;;5018043;28;20031;-71
2023/08/03 08:23:29;;;;;;;1999.90;999.90;;;21.00;99.90;;;;;;5015684;28;20042;-71
2023/08/03 08:25:54;;;;;;;1999.90;999.90;;;21.10;99.90;;;;;;5013288;28;20041;-71
2023/08/03 08:28:20;;;;;;;1999.90;999.90;;;20.90;99.90;;;;;;5029433;28;20425;-70
2023/08/03 08:30:46;;;;;;;1999.90;999.90;;;20.70;99.90;;;;;;5035517;28;20034;-71
2023/08/03 08:33:14;;;;;;;1999.90;999.90;;;20.70;99.90;;;;;;5035614;28;20033;-73
2023/08/03 08:35:39;;;;;;;1999.90;999.90;;;20.60;99.90;;;;;;5034802;28;20109;-70
2023/08/03 08:38:05;;;;;;;1999.90;999.90;;;20.80;99.90;;;;;;5033982;28;20030;-69
2023/08/03 08:40:35;;;;;;;1999.90;999.90;;;20.80;99.90;;;;;;5034758;28;20038;-68
2023/08/03 08:43:00;;;;;;;1999.90;999.90;;;20.90;99.90;;;;;;5035069;28;20041;-71
2023/08/03 08:45:26;;;;;;;1999.90;999.90;;;20.90;99.90;;;;;;5034609;28;20045;-68
2023/08/03 08:47:52;;;;;;;1999.90;999.90;;;21.20;99.80;;;;;;5035141;28;20048;-68
2023/08/03 08:50:17;;;;;;;1999.90;999.90;;;21.30;99.80;;;;;;5033569;28;20101;-68
2023/08/03 08:52:44;;;;;;;1999.90;999.90;;;21.00;99.90;;;;;;5034528;28;20034;-69
2023/08/03 08:55:22;;;;;;;1999.90;999.90;;;21.00;99.90;;;;;;5034533;28;20117;-68
2023/08/03 08:57:47;;;;;;;1999.90;999.90;;;20.70;99.90;;;;;;5034869;28;20037;-70
2023/08/03 09:00:14;;;;;;;1999.90;999.90;;;20.50;99.90;;;;;;5034407;28;20033;-68
2023/08/03 09:02:40;;;;;;;1999.90;999.90;;;20.40;99.90;;;;;;5033796;28;20561;-68
2023/08/03 09:05:25;;;;;;;1999.90;999.90;;;20.10;99.90;;;;;;5034226;28;20034;-68
2023/08/03 09:08:10;;;;;;;1999.90;999.90;;;20.20;99.90;;;;;;5035134;28;20033;-69
2023/08/03 09:10:55;;;;;;;1999.90;999.90;;;20.40;99.90;;;;;;5034981;28;20117;-68
2023/08/03 09:13:31;;;;;;;1999.90;999.90;;;20.60;99.90;;;;;;5034598;28;20034;-69
2023/08/03 09:15:57;;;;;;;1999.90;999.90;;;20.60;99.90;;;;;;5034505;28;20038;-68
2023/08/03 09:18:27;;;;;;;1999.90;999.90;;;20.50;99.90;;;;;;5034760;28;20037;-70
2023/08/03 09:21:11;;;;;;;1999.90;999.90;;;21.10;99.90;;;;;;5034627;28;20030;-68
2023/08/03 09:23:37;;;;;;;1999.90;999.90;;;21.40;99.90;;;;;;5034589;28;20137;-68
2023/08/03 09:26:06;;;;;;;1999.90;999.90;;;22.00;99.90;;;;;;5034262;28;20489;-68
2023/08/03 09:28:39;;;;;;;1999.90;999.90;;;22.00;99.90;;;;;;5035060;28;20072;-71
2023/08/03 09:31:06;;;;;;;1999.90;999.90;;;22.10;99.90;;;;;;5034573;28;20030;-68
2023/08/03 09:33:33;;;;;;;1999.90;999.90;;;21.90;99.90;;;;;;5034537;28;20045;-68
2023/08/03 09:36:08;;;;;;;1999.90;999.90;;;21.70;99.90;;;;;;5033549;28;20072;-68
2023/08/03 09:38:34;;;;;;;1999.90;999.90;;;21.50;99.90;;;;;;5033883;28;20069;-69
2023/08/03 09:41:00;;;;;;;1999.90;999.90;;;21.30;99.90;;;;;;5034437;28;20034;-69
2023/08/03 09:43:26;;;;;;;1999.90;999.90;;;21.10;99.90;;;;;;5034070;28;20049;-72
2023/08/03 09:45:53;;;;;;;1999.90;999.90;;;21.00;99.90;;;;;;5034479;28;20358;-74
2023/08/03 09:48:19;;;;;;;1999.90;999.90;;;21.00;99.90;;;;;;5034338;28;20413;-68
2023/08/03 09:50:50;;;;;;;1999.90;999.90;;;20.90;99.90;;;;;;5034285;28;20037;-69
2023/08/03 09:53:20;;;;;;;1999.90;999.90;;;20.90;99.90;;;;;;5034412;28;20034;-68
2023/08/03 09:55:53;;;;;;;1999.90;999.90;;;21.00;99.90;;;;;;5033845;28;20038;-68
2023/08/03 09:58:23;;;;;;;1999.90;999.90;;;21.00;99.90;;;;;;5032918;28;20034;-70
2023/08/03 10:00:51;;;;;;;1999.90;999.90;;;21.20;99.90;;;;;;5034352;28;20509;-69
2023/08/03 10:03:18;;;;;;;1999.90;999.90;;;21.00;99.90;;;;;;5033916;28;20057;-68
2023/08/03 10:06:06;;;;;;;1999.90;999.90;;;21.20;99.90;;;;;;5033745;28;20030;-68
2023/08/03 10:08:48;;;;;;;1999.90;999.90;;;21.30;99.90;;;;;;5034111;28;20042;-69
2023/08/03 10:11:14;;;;;;;1999.90;999.90;;;21.40;99.90;;;;;;5034169;28;20478;-68
2023/08/03 10:13:48;;;;;;;1999.90;999.90;;;21.50;99.90;;;;;;5033833;28;20042;-68
2023/08/03 10:16:15;;;;;;;1999.90;999.90;;;21.70;99.90;;;;;;5033692;28;20537;-70
2023/08/03 10:18:42;;;;;;;1999.90;999.90;;;21.80;99.90;;;;;;5033872;28;20070;-69
2023/08/03 10:21:09;;;;;;;1999.90;999.90;;;21.70;99.90;;;;;;5033967;28;20026;-69
2023/08/03 10:23:38;;;;;;;1999.90;999.90;;;22.10;99.90;;;;;;5033794;28;20087;-68
2023/08/03 10:26:04;;;;;;;1999.90;999.90;;;22.20;99.90;;;;;;5033563;28;20037;-68
2023/08/03 10:28:39;;;;;;;1999.90;999.90;;;22.30;99.90;;;;;;5033611;28;20488;-69
2023/08/03 10:31:15;;;;;;;1999.90;999.90;;;22.80;99.90;;;;;;5033853;28;20058;-69
2023/08/03 10:33:47;;;;;;;1999.90;999.90;;;23.30;99.90;;;;;;5032413;28;20033;-69
2023/08/03 10:36:30;;;;;;;1999.90;999.90;;;23.40;99.90;;;;;;5032833;28;20033;-68
2023/08/03 10:39:09;;;;;;;1999.90;999.90;;;22.90;98.00;;;;;;5032826;28;20034;-70
2023/08/03 10:41:37;;;;;;;1999.90;999.90;;;22.90;99.80;;;;;;5033443;28;20091;-70
2023/08/03 10:44:05;;;;;;;1999.90;999.90;;;23.20;99.90;;;;;;5032232;28;20033;-70
2023/08/03 10:46:39;;;;;;;1999.90;999.90;;;23.20;99.90;;;;;;5033295;28;20040;-68
2023/08/03 10:49:20;;;;;;;1999.90;999.90;;;22.70;98.30;;;;;;5035660;28;20034;-70
2023/08/03 10:52:16;;;;;;;1999.90;999.90;;;22.40;99.10;;;;;;5036410;28;20041;-68
2023/08/03 10:54:42;;;;;;;1999.90;999.90;;;22.30;99.90;;;;;;5035587;28;20038;-70
2023/08/03 10:57:19;;;;;;;1999.90;999.90;;;22.50;99.90;;;;;;5036690;28;20068;-71
2023/08/03 10:59:48;;;;;;;1999.90;999.90;;;22.50;99.40;;;;;;5036510;28;20517;-69
2023/08/03 11:02:18;;;;;;;1999.90;999.90;;;22.90;99.60;;;;;;5036243;28;20553;-68
2023/08/03 11:04:44;;;;;;;1999.90;999.90;;;22.80;98.40;;;;;;5035804;28;20034;-71
2023/08/03 11:07:11;;;;;;;1999.90;999.90;;;22.50;99.90;;;;;;5036191;28;20061;-68
2023/08/03 11:09:37;;;;;;;1999.90;999.90;;;22.70;99.00;;;;;;5034818;28;20542;-69
2023/08/03 11:12:05;;;;;;;1999.90;999.90;;;23.40;97.90;;;;;;5036482;28;20034;-73
2023/08/03 11:14:31;;;;;;;1999.90;999.90;;;23.50;97.40;;;;;;5035732;28;20037;-69
2023/08/03 11:16:56;;;;;;;1999.90;999.90;;;23.30;98.60;;;;;;5036317;28;20033;-69
2023/08/03 11:19:23;;;;;;;1999.90;999.90;;;23.80;97.90;;;;;;5036229;28;20038;-69
2023/08/03 11:21:48;;;;;;;1999.90;999.90;;;24.30;98.90;;;;;;5035830;28;20101;-70
2023/08/03 11:24:14;;;;;;;1999.90;999.90;;;24.20;97.10;;;;;;5035195;28;20045;-69
2023/08/03 11:26:40;;;;;;;1999.90;999.90;;;24.00;98.70;;;;;;5035746;28;20060;-68
2023/08/03 11:29:06;;;;;;;1999.90;999.90;;;23.80;97.60;;;;;;5036403;28;20036;-74
2023/08/03 11:31:32;;;;;;;1999.90;999.90;;;23.70;97.10;;;;;;5036533;28;20036;-69
2023/08/03 11:33:58;;;;;;;1999.90;999.90;;;23.50;97.90;;;;;;5035564;28;20106;-69
2023/08/03 11:36:24;;;;;;;1999.90;999.90;;;23.60;97.90;;;;;;5036007;28;20034;-77
2023/08/03 11:38:52;;;;;;;1999.90;999.90;;;23.30;98.20;;;;;;5034557;28;20088;-70
2023/08/03 11:41:24;;;;;;;1999.90;999.90;;;23.30;97.70;;;;;;5036286;28;20065;-69
2023/08/03 11:43:50;;;;;;;1999.90;999.90;;;23.30;98.10;;;;;;5033712;28;20038;-75
2023/08/03 11:46:20;;;;;;;1999.90;999.90;;;23.60;97.30;;;;;;5034516;28;20498;-69
2023/08/03 11:48:46;;;;;;;1999.90;999.90;;;24.00;98.30;;;;;;5035665;28;20045;-73
2023/08/03 11:51:11;;;;;;;1999.90;999.90;;;24.30;96.50;;;;;;5036038;28;20030;-73
2023/08/03 11:53:40;;;;;;;1999.90;999.90;;;24.80;95.80;;;;;;5035883;28;20095;-74
2023/08/03 11:56:06;;;;;;;1999.90;999.90;;;24.50;95.60;;;;;;5035718;28;20050;-68
2023/08/03 11:58:34;;;;;;;1999.90;999.90;;;23.70;95.50;;;;;;5035934;28;20121;-74
2023/08/03 12:01:02;;;;;;;1999.90;999.90;;;23.50;96.30;;;;;;5034893;28;20026;-69